Quick Links (Output Below):   Max & Min Temps   /   Climate Reports   /   Zone Forecasts
River Forecasts   /   Forestry Forecasts   /   Aviation Forecasts   /   Radars   /   Features

Terminal Aerodrome Forecast (El Dorado)

Pick a Site:
Arkadelphia | El Dorado | Fayetteville | Fort Smith | Harrison | Highfill | Hot Springs | Jonesboro
Little Rock | Monticello | Mountain Home | Pine Bluff | Texarkana
 Forecast 

KELD 251740Z 2518/2618 18010KT P6SM BKN035 OVC060
     FM260000 17012KT P6SM VCTS BKN040CB OVC060
     FM260200 16010KT 5SM TSRA BR OVC035CB
     FM260900 17008KT 5SM -SHRA VCTS OVC020CB
     FM261500 19010KT P6SM BKN025=


 Latest METARs (Observations) 
How to Decode METARs
21Z KELD 252053Z AUTO 14008KT 10SM FEW110 29/21 A2991 RMK AO2 SLP126
         T02940211 58036
         
20Z KELD 251953Z AUTO 14008KT 10SM SCT039 BKN050 29/21 A2998 RMK AO2
         LTG DSNT SW AND W SLP147 T02940206
         
19Z KELD 251853Z AUTO VRB05KT 10SM FEW034 SCT065 29/21 A3001 RMK AO2
         SLP158 T02890206
         
18Z KELD 251753Z AUTO 11006KT 10SM FEW023 SCT031 28/21 A3002 RMK AO2
         SLP162 T02780211 10278 20217 58006
         
17Z KELD 251653Z AUTO 21007KT 10SM BKN021 BKN025 OVC031 26/21 A3003
         RMK AO2 SLP166 T02610206
         
16Z KELD 251553Z AUTO 14008KT 10SM BKN017 OVC022 24/21 A3004 RMK AO2
         SLP168 T02440206
         
15Z KELD 251453Z AUTO 15010KT 10SM SCT014 OVC020 24/20 A3004 RMK AO2
         SLP169 T02390200 51011
         
14Z KELD 251353Z AUTO 19008KT 10SM OVC009 22/20 A3003 RMK AO2 CIG
         008V013 SLP167 T02220200
         
13Z KELD 251253Z AUTO 18006KT 10SM OVC009 22/20 A3002 RMK AO2 CIG
         006V011 SLP163 T02170200
         
12Z KELD 251153Z AUTO 15004KT 9SM OVC012 21/19 A3001 RMK AO2 SLP158
         70007 T02060194 10211 20200 51007
         
***** Today's Observations (Above) *****


Back to Main Page
http://www.srh.noaa.gov/lzk/qfcst.php

USA.gov is the U.S. government's official web portal to all federal, state and local government web resources and services.